sensor_id;sensor_type;location;lat;lon;timestamp;P1;durP1;ratioP1;P2;durP2;ratioP2
62419;SDS011;48460;51.616;5.426;2022-10-15T00:02:16;24.65;;;15.07;;
62419;SDS011;48460;51.616;5.426;2022-10-15T00:04:41;23.38;;;14.25;;
62419;SDS011;48460;51.616;5.426;2022-10-15T00:07:12;18.08;;;11.75;;
62419;SDS011;48460;51.616;5.426;2022-10-15T00:09:40;22.08;;;14.48;;
62419;SDS011;48460;51.616;5.426;2022-10-15T00:12:05;20.48;;;14.88;;
62419;SDS011;48460;51.616;5.426;2022-10-15T00:14:41;22.38;;;15.48;;
62419;SDS011;48460;51.616;5.426;2022-10-15T00:17:11;26.40;;;16.08;;
62419;SDS011;48460;51.616;5.426;2022-10-15T00:20:00;26.23;;;15.18;;
62419;SDS011;48460;51.616;5.426;2022-10-15T00:22:34;27.40;;;16.02;;
62419;SDS011;48460;51.616;5.426;2022-10-15T00:25:00;21.73;;;15.43;;
62419;SDS011;48460;51.616;5.426;2022-10-15T00:27:29;24.60;;;15.32;;
62419;SDS011;48460;51.616;5.426;2022-10-15T00:30:08;25.48;;;15.57;;
62419;SDS011;48460;51.616;5.426;2022-10-15T00:32:45;26.02;;;16.08;;
62419;SDS011;48460;51.616;5.426;2022-10-15T00:35:10;25.98;;;15.88;;
62419;SDS011;48460;51.616;5.426;2022-10-15T00:37:43;32.60;;;17.13;;
62419;SDS011;48460;51.616;5.426;2022-10-15T00:40:10;34.60;;;18.92;;
62419;SDS011;48460;51.616;5.426;2022-10-15T00:42:39;31.15;;;18.02;;
62419;SDS011;48460;51.616;5.426;2022-10-15T00:45:04;30.20;;;18.67;;
62419;SDS011;48460;51.616;5.426;2022-10-15T00:50:24;38.30;;;21.73;;
62419;SDS011;48460;51.616;5.426;2022-10-15T00:53:01;36.85;;;20.70;;
62419;SDS011;48460;51.616;5.426;2022-10-15T00:55:34;39.45;;;22.25;;
62419;SDS011;48460;51.616;5.426;2022-10-15T00:58:06;44.08;;;23.83;;
62419;SDS011;48460;51.616;5.426;2022-10-15T01:00:40;47.10;;;24.92;;
62419;SDS011;48460;51.616;5.426;2022-10-15T01:03:07;47.67;;;25.90;;
62419;SDS011;48460;51.616;5.426;2022-10-15T01:05:42;56.83;;;27.85;;
62419;SDS011;48460;51.616;5.426;2022-10-15T01:08:10;63.95;;;33.00;;
62419;SDS011;48460;51.616;5.426;2022-10-15T01:16:53;61.70;;;31.05;;
62419;SDS011;48460;51.616;5.426;2022-10-15T01:19:41;63.03;;;31.15;;
62419;SDS011;48460;51.616;5.426;2022-10-15T01:34:39;57.25;;;30.60;;
62419;SDS011;48460;51.616;5.426;2022-10-15T01:37:20;70.68;;;35.53;;
62419;SDS011;48460;51.616;5.426;2022-10-15T01:40:01;66.85;;;32.53;;
62419;SDS011;48460;51.616;5.426;2022-10-15T01:45:39;58.72;;;31.15;;
62419;SDS011;48460;51.616;5.426;2022-10-15T01:48:11;60.20;;;33.33;;
62419;SDS011;48460;51.616;5.426;2022-10-15T01:50:42;55.35;;;32.15;;
62419;SDS011;48460;51.616;5.426;2022-10-15T01:53:25;56.67;;;30.85;;
62419;SDS011;48460;51.616;5.426;2022-10-15T01:56:03;58.63;;;31.48;;
62419;SDS011;48460;51.616;5.426;2022-10-15T01:58:35;58.60;;;33.08;;
62419;SDS011;48460;51.616;5.426;2022-10-15T02:01:20;55.53;;;31.13;;
62419;SDS011;48460;51.616;5.426;2022-10-15T02:03:49;59.33;;;32.47;;
62419;SDS011;48460;51.616;5.426;2022-10-15T02:11:46;56.42;;;31.52;;
62419;SDS011;48460;51.616;5.426;2022-10-15T02:17:45;54.40;;;30.13;;
62419;SDS011;48460;51.616;5.426;2022-10-15T02:20:19;56.40;;;31.20;;
62419;SDS011;48460;51.616;5.426;2022-10-15T02:22:54;55.67;;;30.65;;
62419;SDS011;48460;51.616;5.426;2022-10-15T02:28:33;51.63;;;30.33;;
62419;SDS011;48460;51.616;5.426;2022-10-15T02:31:03;56.53;;;31.55;;
62419;SDS011;48460;51.616;5.426;2022-10-15T02:33:30;52.35;;;31.48;;
62419;SDS011;48460;51.616;5.426;2022-10-15T02:35:56;52.90;;;32.08;;
62419;SDS011;48460;51.616;5.426;2022-10-15T02:38:26;59.33;;;32.53;;
62419;SDS011;48460;51.616;5.426;2022-10-15T02:40:55;55.80;;;31.65;;
62419;SDS011;48460;51.616;5.426;2022-10-15T02:43:30;54.58;;;32.35;;
62419;SDS011;48460;51.616;5.426;2022-10-15T02:45:56;57.63;;;32.90;;
62419;SDS011;48460;51.616;5.426;2022-10-15T02:48:26;58.13;;;32.10;;
62419;SDS011;48460;51.616;5.426;2022-10-15T02:50:51;60.70;;;32.10;;
62419;SDS011;48460;51.616;5.426;2022-10-15T02:53:22;57.15;;;33.75;;
62419;SDS011;48460;51.616;5.426;2022-10-15T02:55:53;59.70;;;33.45;;
62419;SDS011;48460;51.616;5.426;2022-10-15T02:58:21;55.58;;;33.35;;
62419;SDS011;48460;51.616;5.426;2022-10-15T03:00:46;62.63;;;33.78;;
62419;SDS011;48460;51.616;5.426;2022-10-15T03:03:13;56.53;;;32.47;;
62419;SDS011;48460;51.616;5.426;2022-10-15T03:05:39;54.28;;;32.60;;
62419;SDS011;48460;51.616;5.426;2022-10-15T03:08:07;56.78;;;33.17;;
62419;SDS011;48460;51.616;5.426;2022-10-15T03:10:33;59.58;;;33.00;;
62419;SDS011;48460;51.616;5.426;2022-10-15T03:13:05;53.85;;;31.45;;
62419;SDS011;48460;51.616;5.426;2022-10-15T03:15:36;54.40;;;31.55;;
62419;SDS011;48460;51.616;5.426;2022-10-15T03:18:04;55.88;;;32.38;;
62419;SDS011;48460;51.616;5.426;2022-10-15T03:20:32;55.60;;;32.47;;
62419;SDS011;48460;51.616;5.426;2022-10-15T03:22:59;50.38;;;31.17;;
62419;SDS011;48460;51.616;5.426;2022-10-15T03:25:25;55.75;;;31.45;;
62419;SDS011;48460;51.616;5.426;2022-10-15T03:27:55;52.88;;;31.02;;
62419;SDS011;48460;51.616;5.426;2022-10-15T03:30:26;51.60;;;30.05;;
62419;SDS011;48460;51.616;5.426;2022-10-15T03:33:02;60.30;;;32.47;;
62419;SDS011;48460;51.616;5.426;2022-10-15T03:35:27;58.40;;;33.00;;
62419;SDS011;48460;51.616;5.426;2022-10-15T03:37:58;58.78;;;33.72;;
62419;SDS011;48460;51.616;5.426;2022-10-15T03:40:26;62.20;;;35.03;;
62419;SDS011;48460;51.616;5.426;2022-10-15T03:42:53;59.20;;;34.22;;
62419;SDS011;48460;51.616;5.426;2022-10-15T03:45:20;64.25;;;34.38;;
62419;SDS011;48460;51.616;5.426;2022-10-15T03:47:49;60.17;;;34.60;;
62419;SDS011;48460;51.616;5.426;2022-10-15T03:50:22;61.78;;;34.13;;
62419;SDS011;48460;51.616;5.426;2022-10-15T03:52:51;59.25;;;32.38;;
62419;SDS011;48460;51.616;5.426;2022-10-15T03:55:19;70.70;;;34.25;;
62419;SDS011;48460;51.616;5.426;2022-10-15T03:57:56;62.88;;;35.92;;
62419;SDS011;48460;51.616;5.426;2022-10-15T04:00:24;59.03;;;32.13;;
62419;SDS011;48460;51.616;5.426;2022-10-15T04:05:21;59.42;;;30.58;;
62419;SDS011;48460;51.616;5.426;2022-10-15T04:07:48;60.25;;;30.48;;
62419;SDS011;48460;51.616;5.426;2022-10-15T04:10:14;58.85;;;30.88;;
62419;SDS011;48460;51.616;5.426;2022-10-15T04:13:08;66.63;;;33.13;;
62419;SDS011;48460;51.616;5.426;2022-10-15T04:15:40;68.70;;;30.65;;
62419;SDS011;48460;51.616;5.426;2022-10-15T04:18:09;73.63;;;36.20;;
62419;SDS011;48460;51.616;5.426;2022-10-15T04:20:34;64.40;;;32.92;;
62419;SDS011;48460;51.616;5.426;2022-10-15T04:23:10;72.88;;;34.67;;
62419;SDS011;48460;51.616;5.426;2022-10-15T04:25:56;66.13;;;33.00;;
62419;SDS011;48460;51.616;5.426;2022-10-15T04:28:52;72.43;;;32.30;;
62419;SDS011;48460;51.616;5.426;2022-10-15T04:31:17;68.13;;;33.70;;
62419;SDS011;48460;51.616;5.426;2022-10-15T04:33:46;80.10;;;35.13;;
62419;SDS011;48460;51.616;5.426;2022-10-15T04:36:12;79.65;;;33.90;;
62419;SDS011;48460;51.616;5.426;2022-10-15T04:38:43;78.95;;;34.63;;
62419;SDS011;48460;51.616;5.426;2022-10-15T04:41:09;79.35;;;38.25;;
62419;SDS011;48460;51.616;5.426;2022-10-15T04:43:39;80.47;;;36.88;;
62419;SDS011;48460;51.616;5.426;2022-10-15T04:46:05;85.53;;;38.67;;
62419;SDS011;48460;51.616;5.426;2022-10-15T04:48:34;86.50;;;35.42;;
62419;SDS011;48460;51.616;5.426;2022-10-15T04:51:02;77.43;;;33.65;;
62419;SDS011;48460;51.616;5.426;2022-10-15T04:53:37;88.38;;;36.33;;
62419;SDS011;48460;51.616;5.426;2022-10-15T04:56:03;87.90;;;36.38;;
62419;SDS011;48460;51.616;5.426;2022-10-15T04:58:31;79.03;;;32.78;;
62419;SDS011;48460;51.616;5.426;2022-10-15T05:00:58;82.00;;;33.30;;
62419;SDS011;48460;51.616;5.426;2022-10-15T05:03:25;75.88;;;32.72;;
62419;SDS011;48460;51.616;5.426;2022-10-15T05:05:58;74.75;;;31.80;;
62419;SDS011;48460;51.616;5.426;2022-10-15T05:08:28;72.85;;;33.10;;
62419;SDS011;48460;51.616;5.426;2022-10-15T05:11:02;76.70;;;32.75;;
62419;SDS011;48460;51.616;5.426;2022-10-15T05:13:35;70.18;;;30.40;;
62419;SDS011;48460;51.616;5.426;2022-10-15T05:16:08;69.53;;;31.23;;
62419;SDS011;48460;51.616;5.426;2022-10-15T05:18:37;70.95;;;32.75;;
62419;SDS011;48460;51.616;5.426;2022-10-15T05:21:06;64.57;;;29.20;;
62419;SDS011;48460;51.616;5.426;2022-10-15T05:23:32;61.28;;;29.58;;
62419;SDS011;48460;51.616;5.426;2022-10-15T05:26:04;58.20;;;28.48;;
62419;SDS011;48460;51.616;5.426;2022-10-15T05:28:34;63.42;;;28.88;;
62419;SDS011;48460;51.616;5.426;2022-10-15T05:31:33;62.20;;;26.80;;
62419;SDS011;48460;51.616;5.426;2022-10-15T05:34:02;57.22;;;28.67;;
62419;SDS011;48460;51.616;5.426;2022-10-15T05:36:31;56.45;;;27.65;;
62419;SDS011;48460;51.616;5.426;2022-10-15T05:39:12;56.92;;;29.50;;
62419;SDS011;48460;51.616;5.426;2022-10-15T05:41:39;60.08;;;29.50;;
62419;SDS011;48460;51.616;5.426;2022-10-15T05:44:14;57.28;;;28.20;;
62419;SDS011;48460;51.616;5.426;2022-10-15T05:46:52;52.00;;;26.10;;
62419;SDS011;48460;51.616;5.426;2022-10-15T05:49:17;52.22;;;26.20;;
62419;SDS011;48460;51.616;5.426;2022-10-15T05:51:51;53.28;;;28.15;;
62419;SDS011;48460;51.616;5.426;2022-10-15T05:54:35;55.08;;;28.23;;
62419;SDS011;48460;51.616;5.426;2022-10-15T05:57:00;51.65;;;26.70;;
62419;SDS011;48460;51.616;5.426;2022-10-15T05:59:31;52.20;;;29.23;;
62419;SDS011;48460;51.616;5.426;2022-10-15T06:02:09;49.08;;;25.42;;
62419;SDS011;48460;51.616;5.426;2022-10-15T06:04:47;54.10;;;25.25;;
62419;SDS011;48460;51.616;5.426;2022-10-15T06:07:15;52.45;;;27.17;;
62419;SDS011;48460;51.616;5.426;2022-10-15T06:09:43;51.53;;;26.45;;
62419;SDS011;48460;51.616;5.426;2022-10-15T06:14:50;49.67;;;25.55;;
62419;SDS011;48460;51.616;5.426;2022-10-15T06:17:16;47.58;;;24.98;;
62419;SDS011;48460;51.616;5.426;2022-10-15T06:19:41;47.83;;;24.15;;
62419;SDS011;48460;51.616;5.426;2022-10-15T06:22:10;48.60;;;25.48;;
62419;SDS011;48460;51.616;5.426;2022-10-15T06:24:43;49.22;;;26.92;;
62419;SDS011;48460;51.616;5.426;2022-10-15T06:27:11;47.78;;;24.88;;
62419;SDS011;48460;51.616;5.426;2022-10-15T06:29:55;47.75;;;24.85;;
62419;SDS011;48460;51.616;5.426;2022-10-15T06:32:47;53.03;;;25.13;;
62419;SDS011;48460;51.616;5.426;2022-10-15T06:35:17;49.80;;;25.98;;
62419;SDS011;48460;51.616;5.426;2022-10-15T06:37:46;50.78;;;26.08;;
62419;SDS011;48460;51.616;5.426;2022-10-15T06:40:14;56.08;;;26.17;;
62419;SDS011;48460;51.616;5.426;2022-10-15T06:42:40;54.40;;;27.60;;
62419;SDS011;48460;51.616;5.426;2022-10-15T06:45:13;50.15;;;24.98;;
62419;SDS011;48460;51.616;5.426;2022-10-15T06:47:43;52.83;;;27.58;;
62419;SDS011;48460;51.616;5.426;2022-10-15T06:50:08;54.25;;;27.48;;
62419;SDS011;48460;51.616;5.426;2022-10-15T06:52:34;57.92;;;28.83;;
62419;SDS011;48460;51.616;5.426;2022-10-15T06:55:04;56.65;;;28.27;;
62419;SDS011;48460;51.616;5.426;2022-10-15T06:57:35;60.20;;;28.27;;
62419;SDS011;48460;51.616;5.426;2022-10-15T07:00:08;54.50;;;27.60;;
62419;SDS011;48460;51.616;5.426;2022-10-15T07:02:39;55.25;;;27.85;;
62419;SDS011;48460;51.616;5.426;2022-10-15T07:05:05;58.50;;;30.10;;
62419;SDS011;48460;51.616;5.426;2022-10-15T07:07:34;61.28;;;30.13;;
62419;SDS011;48460;51.616;5.426;2022-10-15T07:10:00;64.47;;;33.22;;
62419;SDS011;48460;51.616;5.426;2022-10-15T07:12:28;56.70;;;29.13;;
62419;SDS011;48460;51.616;5.426;2022-10-15T07:15:01;64.15;;;32.60;;
62419;SDS011;48460;51.616;5.426;2022-10-15T07:17:31;58.60;;;29.67;;
62419;SDS011;48460;51.616;5.426;2022-10-15T07:20:09;60.90;;;31.65;;
62419;SDS011;48460;51.616;5.426;2022-10-15T07:22:56;55.83;;;30.23;;
62419;SDS011;48460;51.616;5.426;2022-10-15T07:25:33;60.92;;;31.48;;
62419;SDS011;48460;51.616;5.426;2022-10-15T07:28:11;59.30;;;30.75;;
62419;SDS011;48460;51.616;5.426;2022-10-15T07:30:40;55.55;;;28.25;;
62419;SDS011;48460;51.616;5.426;2022-10-15T07:36:55;53.13;;;28.05;;
62419;SDS011;48460;51.616;5.426;2022-10-15T07:39:20;49.03;;;27.92;;
62419;SDS011;48460;51.616;5.426;2022-10-15T07:41:46;44.55;;;25.77;;
62419;SDS011;48460;51.616;5.426;2022-10-15T07:44:14;47.20;;;25.80;;
62419;SDS011;48460;51.616;5.426;2022-10-15T07:46:42;45.07;;;25.47;;
62419;SDS011;48460;51.616;5.426;2022-10-15T07:49:13;47.85;;;25.17;;
62419;SDS011;48460;51.616;5.426;2022-10-15T07:51:41;42.92;;;24.27;;
62419;SDS011;48460;51.616;5.426;2022-10-15T07:54:07;43.13;;;23.85;;
62419;SDS011;48460;51.616;5.426;2022-10-15T07:56:32;37.15;;;21.08;;
62419;SDS011;48460;51.616;5.426;2022-10-15T07:58:58;37.67;;;21.30;;
62419;SDS011;48460;51.616;5.426;2022-10-15T08:01:23;35.50;;;20.65;;
62419;SDS011;48460;51.616;5.426;2022-10-15T08:06:59;37.78;;;20.13;;
62419;SDS011;48460;51.616;5.426;2022-10-15T08:09:34;31.10;;;18.83;;
62419;SDS011;48460;51.616;5.426;2022-10-15T08:12:02;30.67;;;18.15;;
62419;SDS011;48460;51.616;5.426;2022-10-15T08:17:19;26.83;;;16.33;;
62419;SDS011;48460;51.616;5.426;2022-10-15T08:19:56;27.10;;;15.82;;
62419;SDS011;48460;51.616;5.426;2022-10-15T08:22:52;27.20;;;16.20;;
62419;SDS011;48460;51.616;5.426;2022-10-15T08:25:30;24.40;;;14.98;;
62419;SDS011;48460;51.616;5.426;2022-10-15T08:27:56;25.73;;;14.50;;
62419;SDS011;48460;51.616;5.426;2022-10-15T08:30:25;24.95;;;15.48;;
62419;SDS011;48460;51.616;5.426;2022-10-15T08:32:53;25.15;;;15.57;;
62419;SDS011;48460;51.616;5.426;2022-10-15T08:35:32;26.38;;;15.05;;
62419;SDS011;48460;51.616;5.426;2022-10-15T08:38:20;24.08;;;13.88;;
62419;SDS011;48460;51.616;5.426;2022-10-15T08:40:56;22.33;;;13.07;;
62419;SDS011;48460;51.616;5.426;2022-10-15T08:43:39;22.08;;;12.65;;
62419;SDS011;48460;51.616;5.426;2022-10-15T08:46:53;19.75;;;11.40;;
62419;SDS011;48460;51.616;5.426;2022-10-15T08:52:12;18.85;;;12.02;;
62419;SDS011;48460;51.616;5.426;2022-10-15T08:54:59;18.52;;;10.70;;
62419;SDS011;48460;51.616;5.426;2022-10-15T09:00:23;15.23;;;8.88;;
62419;SDS011;48460;51.616;5.426;2022-10-15T09:03:00;13.93;;;9.15;;
62419;SDS011;48460;51.616;5.426;2022-10-15T09:08:30;17.83;;;9.63;;
62419;SDS011;48460;51.616;5.426;2022-10-15T09:14:13;13.90;;;8.38;;
62419;SDS011;48460;51.616;5.426;2022-10-15T09:16:43;13.30;;;8.35;;
62419;SDS011;48460;51.616;5.426;2022-10-15T09:19:20;14.82;;;8.63;;
62419;SDS011;48460;51.616;5.426;2022-10-15T09:21:48;12.27;;;8.00;;
62419;SDS011;48460;51.616;5.426;2022-10-15T09:24:20;12.83;;;8.37;;
62419;SDS011;48460;51.616;5.426;2022-10-15T09:32:02;15.25;;;8.40;;
62419;SDS011;48460;51.616;5.426;2022-10-15T09:35:10;14.63;;;8.48;;
62419;SDS011;48460;51.616;5.426;2022-10-15T09:38:04;18.33;;;8.50;;
62419;SDS011;48460;51.616;5.426;2022-10-15T09:43:18;14.68;;;8.93;;
62419;SDS011;48460;51.616;5.426;2022-10-15T09:45:52;16.50;;;8.93;;
62419;SDS011;48460;51.616;5.426;2022-10-15T09:48:21;15.52;;;9.48;;
62419;SDS011;48460;51.616;5.426;2022-10-15T09:51:11;20.85;;;9.93;;
62419;SDS011;48460;51.616;5.426;2022-10-15T09:56:18;19.95;;;9.38;;
62419;SDS011;48460;51.616;5.426;2022-10-15T09:58:59;16.25;;;8.85;;
62419;SDS011;48460;51.616;5.426;2022-10-15T10:01:30;19.88;;;10.23;;
62419;SDS011;48460;51.616;5.426;2022-10-15T10:09:54;19.00;;;9.23;;
62419;SDS011;48460;51.616;5.426;2022-10-15T10:12:34;16.58;;;9.50;;
62419;SDS011;48460;51.616;5.426;2022-10-15T10:15:30;18.73;;;9.48;;
62419;SDS011;48460;51.616;5.426;2022-10-15T10:17:59;16.73;;;9.05;;
62419;SDS011;48460;51.616;5.426;2022-10-15T10:20:26;15.65;;;9.00;;
62419;SDS011;48460;51.616;5.426;2022-10-15T10:22:58;14.40;;;8.63;;
62419;SDS011;48460;51.616;5.426;2022-10-15T10:33:23;14.88;;;7.60;;
62419;SDS011;48460;51.616;5.426;2022-10-15T10:35:51;12.25;;;6.78;;
62419;SDS011;48460;51.616;5.426;2022-10-15T10:38:35;12.18;;;6.25;;
62419;SDS011;48460;51.616;5.426;2022-10-15T10:44:30;8.10;;;5.18;;
62419;SDS011;48460;51.616;5.426;2022-10-15T10:49:42;9.13;;;5.05;;
62419;SDS011;48460;51.616;5.426;2022-10-15T10:52:38;7.78;;;4.40;;
62419;SDS011;48460;51.616;5.426;2022-10-15T10:58:04;6.50;;;5.03;;
62419;SDS011;48460;51.616;5.426;2022-10-15T11:01:04;6.90;;;4.93;;
62419;SDS011;48460;51.616;5.426;2022-10-15T11:03:53;7.95;;;4.78;;
62419;SDS011;48460;51.616;5.426;2022-10-15T11:12:43;6.68;;;4.15;;
62419;SDS011;48460;51.616;5.426;2022-10-15T11:16:03;6.18;;;4.07;;
62419;SDS011;48460;51.616;5.426;2022-10-15T11:29:10;6.90;;;4.03;;
62419;SDS011;48460;51.616;5.426;2022-10-15T12:18:27;4.93;;;2.97;;
62419;SDS011;48460;51.616;5.426;2022-10-15T12:21:30;5.15;;;3.00;;
62419;SDS011;48460;51.616;5.426;2022-10-15T12:30:28;4.32;;;2.60;;
62419;SDS011;48460;51.616;5.426;2022-10-15T12:36:19;3.80;;;2.65;;
62419;SDS011;48460;51.616;5.426;2022-10-15T12:39:03;4.50;;;2.65;;
62419;SDS011;48460;51.616;5.426;2022-10-15T12:47:03;3.63;;;2.95;;
62419;SDS011;48460;51.616;5.426;2022-10-15T12:55:23;4.45;;;3.70;;
62419;SDS011;48460;51.616;5.426;2022-10-15T12:58:29;4.75;;;3.60;;
62419;SDS011;48460;51.616;5.426;2022-10-15T13:01:05;4.88;;;3.58;;
62419;SDS011;48460;51.616;5.426;2022-10-15T13:03:50;6.63;;;3.65;;
62419;SDS011;48460;51.616;5.426;2022-10-15T13:09:05;7.70;;;3.50;;
62419;SDS011;48460;51.616;5.426;2022-10-15T13:11:43;4.82;;;3.50;;
62419;SDS011;48460;51.616;5.426;2022-10-15T13:17:14;5.10;;;3.40;;
62419;SDS011;48460;51.616;5.426;2022-10-15T13:26:21;6.75;;;3.80;;
62419;SDS011;48460;51.616;5.426;2022-10-15T13:28:55;4.82;;;4.32;;
62419;SDS011;48460;51.616;5.426;2022-10-15T13:31:48;5.85;;;4.70;;
62419;SDS011;48460;51.616;5.426;2022-10-15T13:34:30;9.23;;;4.82;;
62419;SDS011;48460;51.616;5.426;2022-10-15T13:37:02;5.63;;;5.13;;
62419;SDS011;48460;51.616;5.426;2022-10-15T13:42:27;6.78;;;5.00;;
62419;SDS011;48460;51.616;5.426;2022-10-15T13:44:57;6.22;;;4.20;;
62419;SDS011;48460;51.616;5.426;2022-10-15T13:47:31;5.13;;;2.83;;
62419;SDS011;48460;51.616;5.426;2022-10-15T13:50:15;3.92;;;2.50;;
62419;SDS011;48460;51.616;5.426;2022-10-15T13:52:46;5.75;;;2.20;;
62419;SDS011;48460;51.616;5.426;2022-10-15T13:55:30;3.38;;;1.73;;
62419;SDS011;48460;51.616;5.426;2022-10-15T14:03:35;2.60;;;1.17;;
62419;SDS011;48460;51.616;5.426;2022-10-15T14:06:22;3.27;;;1.30;;
62419;SDS011;48460;51.616;5.426;2022-10-15T14:09:10;1.33;;;1.25;;
62419;SDS011;48460;51.616;5.426;2022-10-15T14:11:48;1.30;;;1.20;;
62419;SDS011;48460;51.616;5.426;2022-10-15T14:14:35;2.30;;;1.20;;
62419;SDS011;48460;51.616;5.426;2022-10-15T14:17:19;1.95;;;1.15;;
62419;SDS011;48460;51.616;5.426;2022-10-15T14:20:04;0.82;;;0.82;;
62419;SDS011;48460;51.616;5.426;2022-10-15T14:25:40;1.00;;;1.00;;
62419;SDS011;48460;51.616;5.426;2022-10-15T14:28:23;2.03;;;1.30;;
62419;SDS011;48460;51.616;5.426;2022-10-15T14:31:30;2.60;;;1.40;;
62419;SDS011;48460;51.616;5.426;2022-10-15T14:45:39;1.50;;;1.30;;
62419;SDS011;48460;51.616;5.426;2022-10-15T14:48:18;1.70;;;1.20;;
62419;SDS011;48460;51.616;5.426;2022-10-15T14:50:47;2.45;;;1.40;;
62419;SDS011;48460;51.616;5.426;2022-10-15T14:53:17;2.35;;;1.38;;
62419;SDS011;48460;51.616;5.426;2022-10-15T14:55:52;2.55;;;1.25;;
62419;SDS011;48460;51.616;5.426;2022-10-15T14:58:45;2.85;;;1.15;;
62419;SDS011;48460;51.616;5.426;2022-10-15T15:01:21;5.80;;;1.60;;
62419;SDS011;48460;51.616;5.426;2022-10-15T15:03:53;2.47;;;1.60;;
62419;SDS011;48460;51.616;5.426;2022-10-15T15:06:27;4.75;;;1.45;;
62419;SDS011;48460;51.616;5.426;2022-10-15T15:08:53;1.45;;;1.17;;
62419;SDS011;48460;51.616;5.426;2022-10-15T15:11:22;3.40;;;1.30;;
62419;SDS011;48460;51.616;5.426;2022-10-15T15:13:52;5.00;;;1.40;;
62419;SDS011;48460;51.616;5.426;2022-10-15T15:16:21;4.68;;;1.40;;
62419;SDS011;48460;51.616;5.426;2022-10-15T15:18:50;2.70;;;1.30;;
62419;SDS011;48460;51.616;5.426;2022-10-15T15:21:19;1.35;;;0.77;;
62419;SDS011;48460;51.616;5.426;2022-10-15T15:23:50;4.57;;;1.20;;
62419;SDS011;48460;51.616;5.426;2022-10-15T15:26:15;3.50;;;1.40;;
62419;SDS011;48460;51.616;5.426;2022-10-15T15:28:45;1.83;;;1.05;;
62419;SDS011;48460;51.616;5.426;2022-10-15T15:31:21;1.95;;;1.30;;
62419;SDS011;48460;51.616;5.426;2022-10-15T15:33:49;3.85;;;1.10;;
62419;SDS011;48460;51.616;5.426;2022-10-15T15:36:16;4.60;;;1.50;;
62419;SDS011;48460;51.616;5.426;2022-10-15T15:38:46;4.82;;;1.50;;
62419;SDS011;48460;51.616;5.426;2022-10-15T15:41:19;3.67;;;1.50;;
62419;SDS011;48460;51.616;5.426;2022-10-15T15:43:55;3.13;;;1.58;;
62419;SDS011;48460;51.616;5.426;2022-10-15T15:46:23;4.65;;;1.33;;
62419;SDS011;48460;51.616;5.426;2022-10-15T15:48:48;4.20;;;1.40;;
62419;SDS011;48460;51.616;5.426;2022-10-15T15:53:56;4.82;;;1.35;;
62419;SDS011;48460;51.616;5.426;2022-10-15T15:56:22;4.25;;;1.42;;
62419;SDS011;48460;51.616;5.426;2022-10-15T15:58:48;5.10;;;1.42;;
62419;SDS011;48460;51.616;5.426;2022-10-15T16:01:15;3.58;;;1.20;;
62419;SDS011;48460;51.616;5.426;2022-10-15T16:03:41;4.32;;;1.30;;
62419;SDS011;48460;51.616;5.426;2022-10-15T16:06:08;6.90;;;1.35;;
62419;SDS011;48460;51.616;5.426;2022-10-15T16:08:37;6.30;;;2.00;;
62419;SDS011;48460;51.616;5.426;2022-10-15T16:11:04;3.95;;;1.13;;
62419;SDS011;48460;51.616;5.426;2022-10-15T16:13:30;5.07;;;1.50;;
62419;SDS011;48460;51.616;5.426;2022-10-15T16:15:58;4.03;;;1.42;;
62419;SDS011;48460;51.616;5.426;2022-10-15T16:18:30;4.57;;;1.40;;
62419;SDS011;48460;51.616;5.426;2022-10-15T16:20:56;5.18;;;1.45;;
62419;SDS011;48460;51.616;5.426;2022-10-15T16:23:21;6.03;;;1.67;;
62419;SDS011;48460;51.616;5.426;2022-10-15T16:25:54;5.38;;;1.38;;
62419;SDS011;48460;51.616;5.426;2022-10-15T16:28:24;3.75;;;1.90;;
62419;SDS011;48460;51.616;5.426;2022-10-15T16:30:50;4.22;;;1.63;;
62419;SDS011;48460;51.616;5.426;2022-10-15T16:33:17;1.95;;;1.38;;
62419;SDS011;48460;51.616;5.426;2022-10-15T16:35:50;3.17;;;1.55;;
62419;SDS011;48460;51.616;5.426;2022-10-15T16:38:18;6.95;;;1.52;;
62419;SDS011;48460;51.616;5.426;2022-10-15T16:40:44;4.38;;;1.80;;
62419;SDS011;48460;51.616;5.426;2022-10-15T16:43:12;5.32;;;2.20;;
62419;SDS011;48460;51.616;5.426;2022-10-15T16:45:38;4.57;;;2.30;;
62419;SDS011;48460;51.616;5.426;2022-10-15T16:48:03;6.05;;;2.88;;
62419;SDS011;48460;51.616;5.426;2022-10-15T16:50:30;9.10;;;3.75;;
62419;SDS011;48460;51.616;5.426;2022-10-15T16:52:56;12.95;;;7.40;;
62419;SDS011;48460;51.616;5.426;2022-10-15T16:55:26;8.93;;;4.22;;
62419;SDS011;48460;51.616;5.426;2022-10-15T16:57:54;6.72;;;2.92;;
62419;SDS011;48460;51.616;5.426;2022-10-15T17:00:27;7.57;;;2.47;;
62419;SDS011;48460;51.616;5.426;2022-10-15T17:02:53;6.60;;;2.40;;
62419;SDS011;48460;51.616;5.426;2022-10-15T17:05:22;8.32;;;3.28;;
62419;SDS011;48460;51.616;5.426;2022-10-15T17:07:50;6.22;;;2.70;;
62419;SDS011;48460;51.616;5.426;2022-10-15T17:10:16;7.20;;;2.80;;
62419;SDS011;48460;51.616;5.426;2022-10-15T17:12:55;6.03;;;2.78;;
62419;SDS011;48460;51.616;5.426;2022-10-15T17:15:20;6.28;;;2.83;;
62419;SDS011;48460;51.616;5.426;2022-10-15T17:17:51;5.00;;;2.47;;
62419;SDS011;48460;51.616;5.426;2022-10-15T17:20:20;6.90;;;2.78;;
62419;SDS011;48460;51.616;5.426;2022-10-15T17:22:46;7.28;;;2.78;;
62419;SDS011;48460;51.616;5.426;2022-10-15T17:25:14;7.57;;;2.83;;
62419;SDS011;48460;51.616;5.426;2022-10-15T17:27:47;7.22;;;2.83;;
62419;SDS011;48460;51.616;5.426;2022-10-15T17:30:12;10.85;;;3.40;;
62419;SDS011;48460;51.616;5.426;2022-10-15T17:32:40;6.40;;;3.28;;
62419;SDS011;48460;51.616;5.426;2022-10-15T17:35:08;7.00;;;3.13;;
62419;SDS011;48460;51.616;5.426;2022-10-15T17:37:43;5.40;;;3.10;;
62419;SDS011;48460;51.616;5.426;2022-10-15T17:40:12;11.60;;;3.40;;
62419;SDS011;48460;51.616;5.426;2022-10-15T17:42:38;4.72;;;3.15;;
62419;SDS011;48460;51.616;5.426;2022-10-15T17:45:08;6.72;;;2.97;;
62419;SDS011;48460;51.616;5.426;2022-10-15T17:47:38;9.43;;;3.40;;
62419;SDS011;48460;51.616;5.426;2022-10-15T17:50:09;8.98;;;3.60;;
62419;SDS011;48460;51.616;5.426;2022-10-15T17:52:42;8.23;;;3.35;;
62419;SDS011;48460;51.616;5.426;2022-10-15T17:55:18;7.80;;;5.28;;
62419;SDS011;48460;51.616;5.426;2022-10-15T17:57:56;14.43;;;5.80;;
62419;SDS011;48460;51.616;5.426;2022-10-15T18:00:27;10.43;;;5.72;;
62419;SDS011;48460;51.616;5.426;2022-10-15T18:02:52;10.73;;;4.38;;
62419;SDS011;48460;51.616;5.426;2022-10-15T18:05:28;10.93;;;4.00;;
62419;SDS011;48460;51.616;5.426;2022-10-15T18:07:59;13.27;;;3.92;;
62419;SDS011;48460;51.616;5.426;2022-10-15T18:10:41;7.63;;;3.03;;
62419;SDS011;48460;51.616;5.426;2022-10-15T18:13:09;9.70;;;3.00;;
62419;SDS011;48460;51.616;5.426;2022-10-15T18:15:53;7.40;;;3.20;;
62419;SDS011;48460;51.616;5.426;2022-10-15T18:18:22;8.82;;;3.40;;
62419;SDS011;48460;51.616;5.426;2022-10-15T18:21:00;11.60;;;3.00;;
62419;SDS011;48460;51.616;5.426;2022-10-15T18:23:27;8.45;;;2.90;;
62419;SDS011;48460;51.616;5.426;2022-10-15T18:26:05;12.50;;;2.95;;
62419;SDS011;48460;51.616;5.426;2022-10-15T18:28:33;8.57;;;3.00;;
62419;SDS011;48460;51.616;5.426;2022-10-15T18:31:01;6.82;;;3.08;;
62419;SDS011;48460;51.616;5.426;2022-10-15T18:33:35;12.77;;;3.30;;
62419;SDS011;48460;51.616;5.426;2022-10-15T18:36:08;8.48;;;2.80;;
62419;SDS011;48460;51.616;5.426;2022-10-15T18:38:35;10.65;;;3.10;;
62419;SDS011;48460;51.616;5.426;2022-10-15T18:41:20;8.27;;;3.17;;
62419;SDS011;48460;51.616;5.426;2022-10-15T18:43:51;14.57;;;3.35;;
62419;SDS011;48460;51.616;5.426;2022-10-15T18:46:21;9.13;;;3.72;;